Time,TemperatureF,DewpointF,PressureIn,WindDirection,WindDirectionDegrees,WindSpeedMPH,WindSpeedGustMPH,Humidity,HourlyPrecipIn,Conditions,Clouds,dailyrainin,SoftwareType,DateUTC
2013-04-21 00:01:00,46.7,43.3,30.33,SE,130,2.0,5.0,88,0.00,,,0.00,WeatherCatV1.15B25,2013-04-21 07:01:00,
2013-04-21 00:06:00,46.6,43.2,30.33,SSE,166,2.0,6.0,88,0.00,,,0.00,WeatherCatV1.15B25,2013-04-21 07:06:00,
2013-04-21 00:11:00,46.6,43.2,30.33,SW,232,5.0,12.0,88,0.00,,,0.00,WeatherCatV1.15B25,2013-04-21 07:11:00,
2013-04-21 00:16:00,46.5,43.1,30.32,SSW,208,11.0,11.0,88,0.00,,,0.00,WeatherCatV1.15B25,2013-04-21 07:16:00,
2013-04-21 00:21:00,46.4,42.7,30.33,WSW,239,9.0,10.0,87,0.00,,,0.00,WeatherCatV1.15B25,2013-04-21 07:21:00,
2013-04-21 00:26:00,46.2,41.9,30.32,South,191,9.0,14.0,85,0.00,,,0.00,WeatherCatV1.15B25,2013-04-21 07:26:00,
2013-04-21 00:31:00,46.1,41.8,30.33,SW,234,4.0,9.0,85,0.00,,,0.00,WeatherCatV1.15B25,2013-04-21 07:31:00,
2013-04-21 00:36:00,46.1,42.1,30.33,SW,219,7.0,9.0,86,0.00,,,0.00,WeatherCatV1.15B25,2013-04-21 07:36:00,
2013-04-21 00:41:00,46.0,42.0,30.33,SSW,210,9.0,11.0,86,0.00,,,0.00,WeatherCatV1.15B25,2013-04-21 07:41:00,
2013-04-21 00:46:00,45.9,42.0,30.33,SSE,156,4.0,8.0,86,0.00,,,0.00,WeatherCatV1.15B25,2013-04-21 07:46:00,
2013-04-21 00:51:00,45.9,42.0,30.33,WSW,250,3.0,6.0,86,0.00,,,0.00,WeatherCatV1.15B25,2013-04-21 07:51:00,
2013-04-21 00:56:00,45.8,41.9,30.33,SSW,195,4.0,7.0,86,0.00,,,0.00,WeatherCatV1.15B25,2013-04-21 07:56:00,
2013-04-21 01:01:00,45.8,41.9,30.33,SW,221,4.0,5.0,86,0.00,,,0.00,WeatherCatV1.15B25,2013-04-21 08:01:00,
2013-04-21 01:06:00,45.8,42.2,30.32,SW,232,3.0,4.0,87,0.00,,,0.00,WeatherCatV1.15B25,2013-04-21 08:06:00,
2013-04-21 01:11:00,45.8,42.2,30.33,WSW,249,0.0,4.0,87,0.00,,,0.00,WeatherCatV1.15B25,2013-04-21 08:11:00,
2013-04-21 01:16:00,45.7,42.4,30.33,SSE,149,1.0,3.0,88,0.00,,,0.00,WeatherCatV1.15B25,2013-04-21 08:16:00,
2013-04-21 01:21:00,45.6,42.5,30.33,South,181,2.0,9.0,89,0.00,,,0.00,WeatherCatV1.15B25,2013-04-21 08:21:00,
2013-04-21 01:26:00,45.8,42.7,30.32,South,188,3.0,6.0,89,0.00,,,0.00,WeatherCatV1.15B25,2013-04-21 08:26:00,
2013-04-21 01:31:00,45.8,43.0,30.32,South,176,5.0,5.0,90,0.00,,,0.00,WeatherCatV1.15B25,2013-04-21 08:31:00,
2013-04-21 01:36:00,45.7,42.6,30.32,SSE,163,4.0,9.0,89,0.00,,,0.00,WeatherCatV1.15B25,2013-04-21 08:36:00,
2013-04-21 01:41:00,45.7,42.9,30.32,SSE,164,5.0,10.0,90,0.00,,,0.00,WeatherCatV1.15B25,2013-04-21 08:41:00,
2013-04-21 01:46:00,45.7,42.6,30.32,SSW,207,3.0,7.0,89,0.00,,,0.00,WeatherCatV1.15B25,2013-04-21 08:46:00,
2013-04-21 01:51:00,45.6,42.5,30.32,South,185,9.0,9.0,89,0.00,,,0.00,WeatherCatV1.15B25,2013-04-21 08:51:00,
2013-04-21 01:56:00,45.6,42.5,30.32,South,181,6.0,8.0,89,0.00,,,0.00,WeatherCatV1.15B25,2013-04-21 08:56:00,
2013-04-21 01:57:00,45.6,42.5,30.32,South,179,9.0,9.0,89,0.00,,,0.00,WeatherCatV1.15B25,2013-04-21 08:57:00,
2013-04-21 02:02:00,45.5,42.4,30.32,SSW,193,9.0,12.0,89,0.00,,,0.00,WeatherCatV1.15B25,2013-04-21 09:02:00,
2013-04-21 02:07:00,45.5,42.4,30.32,SSE,156,3.0,7.0,89,0.00,,,0.00,WeatherCatV1.15B25,2013-04-21 09:07:00,
2013-04-21 02:12:00,45.5,42.4,30.32,SSE,151,5.0,6.0,89,0.00,,,0.00,WeatherCatV1.15B25,2013-04-21 09:12:00,
2013-04-21 02:17:00,45.4,42.1,30.32,SSE,159,9.0,11.0,88,0.00,,,0.00,WeatherCatV1.15B25,2013-04-21 09:17:00,
2013-04-21 02:22:00,45.4,42.3,30.32,SSE,155,4.0,7.0,89,0.00,,,0.00,WeatherCatV1.15B25,2013-04-21 09:22:00,
2013-04-21 02:27:00,45.3,42.0,30.31,SE,138,5.0,9.0,88,0.00,,,0.00,WeatherCatV1.15B25,2013-04-21 09:27:00,
2013-04-21 02:32:00,45.2,41.9,30.31,SW,214,3.0,6.0,88,0.00,,,0.00,WeatherCatV1.15B25,2013-04-21 09:32:00,
2013-04-21 02:37:00,45.1,41.8,30.31,South,176,7.0,10.0,88,0.00,,,0.00,WeatherCatV1.15B25,2013-04-21 09:37:00,
2013-04-21 02:42:00,45.0,42.0,30.32,WSW,243,4.0,9.0,89,0.00,,,0.00,WeatherCatV1.15B25,2013-04-21 09:42:00,
2013-04-21 02:47:00,45.0,42.0,30.32,SSW,203,7.0,10.0,89,0.00,,,0.00,WeatherCatV1.15B25,2013-04-21 09:47:00,
2013-04-21 02:52:00,44.9,41.9,30.31,SSW,197,4.0,6.0,89,0.00,,,0.00,WeatherCatV1.15B25,2013-04-21 09:52:00,
2013-04-21 02:57:00,44.9,41.9,30.31,SSE,153,5.0,8.0,89,0.00,,,0.00,WeatherCatV1.15B25,2013-04-21 09:57:00,
2013-04-21 03:02:00,44.8,41.8,30.31,SSW,193,7.0,7.0,89,0.00,,,0.00,WeatherCatV1.15B25,2013-04-21 10:02:00,
2013-04-21 03:07:00,44.8,41.8,30.32,WSW,240,4.0,7.0,89,0.00,,,0.00,WeatherCatV1.15B25,2013-04-21 10:07:00,
2013-04-21 03:12:00,44.8,41.8,30.31,SSE,160,2.0,5.0,89,0.00,,,0.00,WeatherCatV1.15B25,2013-04-21 10:12:00,
2013-04-21 03:17:00,44.7,41.7,30.31,SSE,154,2.0,5.0,89,0.00,,,0.00,WeatherCatV1.15B25,2013-04-21 10:17:00,
2013-04-21 03:22:00,44.7,41.4,30.31,SSE,153,4.0,8.0,88,0.00,,,0.00,WeatherCatV1.15B25,2013-04-21 10:22:00,
2013-04-21 03:27:00,44.7,41.4,30.31,SSE,149,5.0,8.0,88,0.00,,,0.00,WeatherCatV1.15B25,2013-04-21 10:27:00,
2013-04-21 03:32:00,44.7,41.4,30.31,SW,219,5.0,7.0,88,0.00,,,0.00,WeatherCatV1.15B25,2013-04-21 10:32:00,
2013-04-21 03:37:00,44.7,41.4,30.31,SE,139,4.0,6.0,88,0.00,,,0.00,WeatherCatV1.15B25,2013-04-21 10:37:00,
2013-04-21 03:42:00,44.6,41.3,30.31,South,179,2.0,7.0,88,0.00,,,0.00,WeatherCatV1.15B25,2013-04-21 10:42:00,
2013-04-21 03:47:00,44.6,41.6,30.31,SW,225,2.0,7.0,89,0.00,,,0.00,WeatherCatV1.15B25,2013-04-21 10:47:00,
2013-04-21 03:52:00,44.6,41.6,30.31,SE,131,2.0,5.0,89,0.00,,,0.00,WeatherCatV1.15B25,2013-04-21 10:52:00,
2013-04-21 03:57:00,44.5,41.5,30.31,SSE,150,2.0,3.0,89,0.00,,,0.00,WeatherCatV1.15B25,2013-04-21 10:57:00,
2013-04-21 04:02:00,44.4,41.4,30.31,SSE,159,2.0,5.0,89,0.00,,,0.00,WeatherCatV1.15B25,2013-04-21 11:02:00,
2013-04-21 04:07:00,44.4,41.4,30.31,SE,124,3.0,10.0,89,0.00,,,0.00,WeatherCatV1.15B25,2013-04-21 11:07:00,
2013-04-21 04:12:00,44.4,41.4,30.31,SE,133,4.0,7.0,89,0.00,,,0.00,WeatherCatV1.15B25,2013-04-21 11:12:00,
2013-04-21 04:17:00,44.4,41.4,30.31,SSW,211,3.0,7.0,89,0.00,,,0.00,WeatherCatV1.15B25,2013-04-21 11:17:00,
2013-04-21 04:22:00,44.3,41.3,30.31,South,186,2.0,8.0,89,0.00,,,0.00,WeatherCatV1.15B25,2013-04-21 11:22:00,
2013-04-21 04:27:00,44.3,41.3,30.31,SSE,159,2.0,8.0,89,0.00,,,0.00,WeatherCatV1.15B25,2013-04-21 11:27:00,
2013-04-21 04:32:00,44.3,41.6,30.31,SSE,149,1.0,3.0,90,0.00,,,0.00,WeatherCatV1.15B25,2013-04-21 11:32:00,
2013-04-21 04:37:00,44.2,41.5,30.31,South,181,4.0,5.0,90,0.00,,,0.00,WeatherCatV1.15B25,2013-04-21 11:37:00,
2013-04-21 04:42:00,44.2,41.5,30.31,SSE,162,3.0,6.0,90,0.00,,,0.00,WeatherCatV1.15B25,2013-04-21 11:42:00,
2013-04-21 04:47:00,44.2,41.5,30.31,SSE,150,4.0,7.0,90,0.00,,,0.00,WeatherCatV1.15B25,2013-04-21 11:47:00,
2013-04-21 04:52:00,44.2,41.5,30.31,SE,138,4.0,9.0,90,0.00,,,0.00,WeatherCatV1.15B25,2013-04-21 11:52:00,
2013-04-21 04:57:00,44.2,41.5,30.31,SSE,156,4.0,8.0,90,0.00,,,0.00,WeatherCatV1.15B25,2013-04-21 11:57:00,
2013-04-21 05:02:00,44.1,41.4,30.31,SSW,201,3.0,5.0,90,0.00,,,0.00,WeatherCatV1.15B25,2013-04-21 12:02:00,
2013-04-21 05:07:00,44.1,41.1,30.31,SSE,153,2.0,4.0,89,0.00,,,0.00,WeatherCatV1.15B25,2013-04-21 12:07:00,
2013-04-21 05:12:00,44.1,41.1,30.31,SSE,152,2.0,5.0,89,0.00,,,0.00,WeatherCatV1.15B25,2013-04-21 12:12:00,
2013-04-21 05:17:00,44.1,41.4,30.31,South,191,3.0,6.0,90,0.00,,,0.00,WeatherCatV1.15B25,2013-04-21 12:17:00,
2013-04-21 05:22:00,44.1,41.4,30.31,SSW,192,2.0,3.0,90,0.00,,,0.00,WeatherCatV1.15B25,2013-04-21 12:22:00,
2013-04-21 05:27:00,44.1,41.1,30.31,South,188,3.0,6.0,89,0.00,,,0.00,WeatherCatV1.15B25,2013-04-21 12:27:00,
2013-04-21 05:32:00,44.0,41.0,30.31,SSW,201,3.0,5.0,89,0.00,,,0.00,WeatherCatV1.15B25,2013-04-21 12:32:00,
2013-04-21 05:37:00,44.0,41.0,30.31,SSW,207,5.0,5.0,89,0.00,,,0.00,WeatherCatV1.15B25,2013-04-21 12:37:00,
2013-04-21 05:42:00,44.0,41.0,30.31,SW,219,5.0,5.0,89,0.00,,,0.00,WeatherCatV1.15B25,2013-04-21 12:42:00,
2013-04-21 05:47:00,43.9,40.9,30.30,SSW,197,1.0,1.0,89,0.00,,,0.00,WeatherCatV1.15B25,2013-04-21 12:47:00,
2013-04-21 05:52:00,43.9,40.9,30.30,SE,141,1.0,5.0,89,0.00,,,0.00,WeatherCatV1.15B25,2013-04-21 12:52:00,
2013-04-21 05:57:00,43.9,40.9,30.30,SSW,213,3.0,4.0,89,0.00,,,0.00,WeatherCatV1.15B25,2013-04-21 12:57:00,
2013-04-21 06:02:00,44.0,41.0,30.30,SSE,154,2.0,4.0,89,0.00,,,0.00,WeatherCatV1.15B25,2013-04-21 13:02:00,
2013-04-21 06:07:00,44.0,40.7,30.30,SSE,160,4.0,7.0,88,0.00,,,0.00,WeatherCatV1.15B25,2013-04-21 13:07:00,
2013-04-21 06:12:00,44.0,40.7,30.30,WSW,246,2.0,6.0,88,0.00,,,0.00,WeatherCatV1.15B25,2013-04-21 13:12:00,
2013-04-21 06:17:00,43.9,40.6,30.30,South,175,2.0,6.0,88,0.00,,,0.00,WeatherCatV1.15B25,2013-04-21 13:17:00,
2013-04-21 06:22:00,43.9,40.6,30.30,SSW,211,2.0,3.0,88,0.00,,,0.00,WeatherCatV1.15B25,2013-04-21 13:22:00,
2013-04-21 06:27:00,44.0,40.7,30.30,SW,225,1.0,2.0,88,0.00,,,0.00,WeatherCatV1.15B25,2013-04-21 13:27:00,
2013-04-21 06:32:00,44.0,40.7,30.30,SSE,153,1.0,4.0,88,0.00,,,0.00,WeatherCatV1.15B25,2013-04-21 13:32:00,
2013-04-21 06:37:00,44.0,40.7,30.30,SSE,160,3.0,6.0,88,0.00,,,0.00,WeatherCatV1.15B25,2013-04-21 13:37:00,
2013-04-21 06:42:00,44.0,40.7,30.30,SSW,212,5.0,7.0,88,0.00,,,0.00,WeatherCatV1.15B25,2013-04-21 13:42:00,
2013-04-21 06:47:00,44.0,40.7,30.30,ESE,110,3.0,7.0,88,0.00,,,0.00,WeatherCatV1.15B25,2013-04-21 13:47:00,
2013-04-21 06:52:00,44.0,40.7,30.30,South,181,2.0,5.0,88,0.00,,,0.00,WeatherCatV1.15B25,2013-04-21 13:52:00,
2013-04-21 06:57:00,44.1,40.8,30.30,South,189,2.0,7.0,88,0.00,,,0.00,WeatherCatV1.15B25,2013-04-21 13:57:00,
2013-04-21 07:02:00,44.1,41.1,30.30,SSW,192,3.0,4.0,89,0.00,,,0.00,WeatherCatV1.15B25,2013-04-21 14:02:00,
2013-04-21 07:07:00,44.1,41.1,30.30,SE,144,3.0,5.0,89,0.00,,,0.00,WeatherCatV1.15B25,2013-04-21 14:07:00,
2013-04-21 07:12:00,44.1,41.1,30.30,SSE,165,7.0,7.0,89,0.00,,,0.00,WeatherCatV1.15B25,2013-04-21 14:12:00,
2013-04-21 07:17:00,44.0,41.0,30.30,SW,235,4.0,7.0,89,0.00,,,0.00,WeatherCatV1.15B25,2013-04-21 14:17:00,
2013-04-21 07:22:00,43.9,40.9,30.30,SSE,159,3.0,9.0,89,0.00,,,0.00,WeatherCatV1.15B25,2013-04-21 14:22:00,
2013-04-21 07:27:00,43.9,41.2,30.30,SSW,204,6.0,7.0,90,0.00,,,0.00,WeatherCatV1.15B25,2013-04-21 14:27:00,
2013-04-21 07:32:00,43.9,41.2,30.30,SSW,200,7.0,7.0,90,0.00,,,0.00,WeatherCatV1.15B25,2013-04-21 14:32:00,
2013-04-21 07:37:00,43.8,41.1,30.30,SSW,194,5.0,6.0,90,0.00,,,0.00,WeatherCatV1.15B25,2013-04-21 14:37:00,
2013-04-21 07:42:00,43.9,41.2,30.30,SW,231,7.0,8.0,90,0.00,,,0.00,WeatherCatV1.15B25,2013-04-21 14:42:00,
2013-04-21 07:47:00,43.9,41.2,30.30,WSW,250,3.0,7.0,90,0.00,,,0.00,WeatherCatV1.15B25,2013-04-21 14:47:00,
2013-04-21 07:52:00,44.0,41.3,30.30,South,190,5.0,7.0,90,0.00,,,0.00,WeatherCatV1.15B25,2013-04-21 14:52:00,
2013-04-21 07:57:00,44.0,41.3,30.30,South,184,4.0,6.0,90,0.00,,,0.00,WeatherCatV1.15B25,2013-04-21 14:57:00,
2013-04-21 08:02:00,44.1,41.1,30.30,SW,234,3.0,8.0,89,0.00,,,0.00,WeatherCatV1.15B25,2013-04-21 15:02:00,
2013-04-21 08:07:00,44.3,41.6,30.30,SSW,198,3.0,6.0,90,0.00,,,0.00,WeatherCatV1.15B25,2013-04-21 15:07:00,
2013-04-21 08:12:00,44.4,41.4,30.30,ESE,123,6.0,6.0,89,0.00,,,0.00,WeatherCatV1.15B25,2013-04-21 15:12:00,
2013-04-21 08:17:00,44.5,41.5,30.30,SE,133,2.0,5.0,89,0.00,,,0.00,WeatherCatV1.15B25,2013-04-21 15:17:00,
2013-04-21 08:22:00,44.5,41.5,30.30,South,188,1.0,7.0,89,0.00,,,0.00,WeatherCatV1.15B25,2013-04-21 15:22:00,
2013-04-21 08:27:00,44.6,41.6,30.30,SSW,193,3.0,7.0,89,0.00,,,0.00,WeatherCatV1.15B25,2013-04-21 15:27:00,
2013-04-21 08:32:00,44.7,41.7,30.30,SSE,150,6.0,6.0,89,0.00,,,0.00,WeatherCatV1.15B25,2013-04-21 15:32:00,
2013-04-21 08:37:00,44.7,41.7,30.30,WSW,257,1.0,4.0,89,0.00,,,0.00,WeatherCatV1.15B25,2013-04-21 15:37:00,
2013-04-21 08:42:00,44.8,41.8,30.30,WSW,246,8.0,9.0,89,0.00,,,0.00,WeatherCatV1.15B25,2013-04-21 15:42:00,
2013-04-21 08:47:00,44.9,41.9,30.30,South,181,2.0,6.0,89,0.00,,,0.00,WeatherCatV1.15B25,2013-04-21 15:47:00,
2013-04-21 08:52:00,45.0,42.0,30.29,SW,224,6.0,7.0,89,0.00,,,0.00,WeatherCatV1.15B25,2013-04-21 15:52:00,
2013-04-21 08:57:00,44.9,41.9,30.29,South,184,5.0,7.0,89,0.00,,,0.00,WeatherCatV1.15B25,2013-04-21 15:57:00,
2013-04-21 09:02:00,44.9,42.1,30.29,SW,222,4.0,6.0,90,0.00,,,0.00,WeatherCatV1.15B25,2013-04-21 16:02:00,
2013-04-21 09:07:00,44.9,41.9,30.29,SSE,159,4.0,9.0,89,0.00,,,0.00,WeatherCatV1.15B25,2013-04-21 16:07:00,
2013-04-21 09:12:00,44.7,41.7,30.29,SW,225,4.0,7.0,89,0.00,,,0.00,WeatherCatV1.15B25,2013-04-21 16:12:00,
2013-04-21 09:17:00,44.5,41.5,30.29,WSW,253,3.0,6.0,89,0.00,,,0.00,WeatherCatV1.15B25,2013-04-21 16:17:00,
2013-04-21 09:22:00,44.5,41.5,30.29,SSW,211,2.0,9.0,89,0.00,,,0.00,WeatherCatV1.15B25,2013-04-21 16:22:00,
2013-04-21 09:27:00,44.5,41.8,30.29,SW,218,4.0,6.0,90,0.00,,,0.00,WeatherCatV1.15B25,2013-04-21 16:27:00,
2013-04-21 09:32:00,44.5,41.5,30.29,SSW,200,4.0,4.0,89,0.00,,,0.00,WeatherCatV1.15B25,2013-04-21 16:32:00,
2013-04-21 09:37:00,44.6,41.8,30.29,WSW,243,5.0,5.0,90,0.00,,,0.00,WeatherCatV1.15B25,2013-04-21 16:37:00,
2013-04-21 09:42:00,44.6,41.6,30.29,SE,136,2.0,8.0,89,0.00,,,0.00,WeatherCatV1.15B25,2013-04-21 16:42:00,
2013-04-21 09:47:00,44.6,41.6,30.29,SE,146,7.0,8.0,89,0.00,,,0.00,WeatherCatV1.15B25,2013-04-21 16:47:00,
2013-04-21 09:52:00,44.6,41.6,30.29,South,180,5.0,7.0,89,0.00,,,0.00,WeatherCatV1.15B25,2013-04-21 16:52:00,
2013-04-21 09:57:00,44.5,41.8,30.29,WSW,250,6.0,12.0,90,0.00,,,0.00,WeatherCatV1.15B25,2013-04-21 16:57:00,
2013-04-21 10:02:00,44.3,41.8,30.29,WSW,255,4.0,6.0,91,0.00,,,0.00,WeatherCatV1.15B25,2013-04-21 17:02:00,
2013-04-21 10:07:00,44.3,41.8,30.29,SW,228,4.0,5.0,91,0.00,,,0.00,WeatherCatV1.15B25,2013-04-21 17:07:00,
2013-04-21 10:12:00,44.2,41.7,30.29,West,276,6.0,10.0,91,0.00,,,0.00,WeatherCatV1.15B25,2013-04-21 17:12:00,
2013-04-21 10:17:00,44.3,41.8,30.29,SSW,207,2.0,6.0,91,0.00,,,0.00,WeatherCatV1.15B25,2013-04-21 17:17:00,
2013-04-21 10:22:00,44.3,42.1,30.29,SSE,159,5.0,6.0,92,0.00,,,0.00,WeatherCatV1.15B25,2013-04-21 17:22:00,
2013-04-21 10:27:00,44.3,42.1,30.29,SSE,163,4.0,7.0,92,0.00,,,0.00,WeatherCatV1.15B25,2013-04-21 17:27:00,
2013-04-21 10:32:00,44.2,42.0,30.29,WSW,249,7.0,7.0,92,0.00,,,0.00,WeatherCatV1.15B25,2013-04-21 17:32:00,
2013-04-21 10:37:00,44.5,42.9,30.29,West,276,3.0,4.0,94,0.00,,,0.00,WeatherCatV1.15B25,2013-04-21 17:37:00,
2013-04-21 10:42:00,44.3,42.4,30.29,SW,234,5.0,5.0,93,0.00,,,0.00,WeatherCatV1.15B25,2013-04-21 17:42:00,
2013-04-21 10:47:00,44.4,42.5,30.29,SW,218,6.0,8.0,93,0.00,,,0.00,WeatherCatV1.15B25,2013-04-21 17:47:00,
2013-04-21 10:52:00,44.5,42.9,30.29,SSW,197,4.0,5.0,94,0.00,,,0.00,WeatherCatV1.15B25,2013-04-21 17:52:00,
2013-04-21 10:57:00,44.5,42.9,30.29,SSW,211,3.0,5.0,94,0.00,,,0.00,WeatherCatV1.15B25,2013-04-21 17:57:00,
2013-04-21 11:02:00,44.5,42.6,30.30,WSW,240,2.0,4.0,93,0.00,,,0.00,WeatherCatV1.15B25,2013-04-21 18:02:00,
2013-04-21 11:07:00,44.5,42.9,30.30,WSW,238,4.0,5.0,94,0.00,,,0.01,WeatherCatV1.15B25,2013-04-21 18:07:00,
2013-04-21 11:12:00,44.5,42.6,30.30,South,183,0.0,2.0,93,0.00,,,0.01,WeatherCatV1.15B25,2013-04-21 18:12:00,
2013-04-21 11:17:00,44.8,42.9,30.30,West,272,0.0,1.0,93,0.00,,,0.01,WeatherCatV1.15B25,2013-04-21 18:17:00,
2013-04-21 11:22:00,45.0,43.1,30.30,SSW,201,0.0,1.0,93,0.04,,,0.02,WeatherCatV1.15B25,2013-04-21 18:22:00,
2013-04-21 11:27:00,45.3,43.4,30.30,NW,324,2.0,2.0,93,0.04,,,0.02,WeatherCatV1.15B25,2013-04-21 18:27:00,
2013-04-21 11:33:00,45.5,43.6,30.30,SSW,193,1.0,2.0,93,0.07,,,0.03,WeatherCatV1.15B25,2013-04-21 18:33:00,
2013-04-21 11:38:00,45.5,43.6,30.30,WNW,294,2.0,2.0,93,0.07,,,0.03,WeatherCatV1.15B25,2013-04-21 18:38:00,
2013-04-21 11:43:00,45.5,43.6,30.30,NW,318,3.0,4.0,93,0.07,,,0.04,WeatherCatV1.15B25,2013-04-21 18:43:00,
2013-04-21 11:48:00,45.6,44.0,30.30,WNW,301,3.0,3.0,94,0.06,,,0.04,WeatherCatV1.15B25,2013-04-21 18:48:00,
2013-04-21 11:53:00,45.9,44.3,30.29,WSW,255,2.0,3.0,94,0.04,,,0.04,WeatherCatV1.15B25,2013-04-21 18:53:00,
2013-04-21 11:58:00,45.9,44.3,30.30,West,276,2.0,2.0,94,0.00,,,0.04,WeatherCatV1.15B25,2013-04-21 18:58:00,
2013-04-21 12:03:00,46.0,44.4,30.30,NW,324,1.0,3.0,94,0.00,,,0.04,WeatherCatV1.15B25,2013-04-21 19:03:00,
2013-04-21 12:08:00,45.8,43.9,30.30,WNW,297,2.0,3.0,93,0.00,,,0.04,WeatherCatV1.15B25,2013-04-21 19:08:00,
2013-04-21 12:13:00,45.7,43.8,30.29,WNW,287,1.0,2.0,93,0.00,,,0.04,WeatherCatV1.15B25,2013-04-21 19:13:00,
2013-04-21 12:18:00,46.4,44.8,30.29,NE,34,2.0,2.0,94,0.00,,,0.04,WeatherCatV1.15B25,2013-04-21 19:18:00,
2013-04-21 12:23:00,46.9,45.0,30.30,WNW,295,0.0,3.0,93,0.00,,,0.04,WeatherCatV1.15B25,2013-04-21 19:23:00,
2013-04-21 12:28:00,47.2,45.0,30.30,North,6,2.0,2.0,92,0.00,,,0.04,WeatherCatV1.15B25,2013-04-21 19:28:00,
2013-04-21 12:33:00,47.5,45.0,30.29,South,186,1.0,5.0,91,0.00,,,0.04,WeatherCatV1.15B25,2013-04-21 19:33:00,
2013-04-21 12:38:00,47.6,45.1,30.29,SSW,198,1.0,3.0,91,0.00,,,0.04,WeatherCatV1.15B25,2013-04-21 19:38:00,
2013-04-21 12:43:00,48.2,45.7,30.29,SE,124,0.0,1.0,91,0.00,,,0.04,WeatherCatV1.15B25,2013-04-21 19:43:00,
2013-04-21 12:48:00,49.3,46.5,30.29,NE,49,3.0,3.0,90,0.00,,,0.04,WeatherCatV1.15B25,2013-04-21 19:48:00,
2013-04-21 12:53:00,49.0,45.0,30.30,WNW,293,0.0,5.0,86,0.00,,,0.04,WeatherCatV1.15B25,2013-04-21 19:53:00,
2013-04-21 12:58:00,49.1,45.1,30.30,West,266,2.0,5.0,86,0.00,,,0.04,WeatherCatV1.15B25,2013-04-21 19:58:00,
2013-04-21 13:03:00,48.9,44.6,30.30,NW,318,4.0,6.0,85,0.00,,,0.04,WeatherCatV1.15B25,2013-04-21 20:03:00,
2013-04-21 13:08:00,48.4,45.0,30.30,North,6,7.0,8.0,88,0.00,,,0.05,WeatherCatV1.15B25,2013-04-21 20:08:00,
2013-04-21 13:13:00,47.4,44.6,30.30,NW,316,4.0,5.0,90,0.14,,,0.06,WeatherCatV1.15B25,2013-04-21 20:13:00,
2013-04-21 13:18:00,47.0,44.8,30.30,NNW,341,2.0,6.0,92,0.10,,,0.07,WeatherCatV1.15B25,2013-04-21 20:18:00,
2013-04-21 13:23:00,46.4,44.2,30.30,North,5,6.0,6.0,92,0.12,,,0.08,WeatherCatV1.15B25,2013-04-21 20:23:00,
2013-04-21 13:28:00,45.6,43.4,30.30,North,358,5.0,11.0,92,0.14,,,0.09,WeatherCatV1.15B25,2013-04-21 20:28:00,
2013-04-21 13:33:00,45.1,43.2,30.30,NNE,27,6.0,11.0,93,0.07,,,0.10,WeatherCatV1.15B25,2013-04-21 20:33:00,
2013-04-21 13:38:00,44.9,43.3,30.30,NNE,25,3.0,6.0,94,0.07,,,0.10,WeatherCatV1.15B25,2013-04-21 20:38:00,
2013-04-21 13:43:00,44.9,43.0,30.30,North,9,2.0,10.0,93,0.06,,,0.10,WeatherCatV1.15B25,2013-04-21 20:43:00,
2013-04-21 13:48:00,44.9,43.3,30.30,NNE,12,7.0,7.0,94,0.04,,,0.10,WeatherCatV1.15B25,2013-04-21 20:48:00,
2013-04-21 13:53:00,44.9,43.0,30.31,NE,36,4.0,8.0,93,0.00,,,0.10,WeatherCatV1.15B25,2013-04-21 20:53:00,
2013-04-21 13:58:00,44.9,42.7,30.31,ENE,75,2.0,5.0,92,0.00,,,0.10,WeatherCatV1.15B25,2013-04-21 20:58:00,
2013-04-21 14:03:00,45.1,42.9,30.31,NNE,22,3.0,7.0,92,0.00,,,0.10,WeatherCatV1.15B25,2013-04-21 21:03:00,
2013-04-21 14:08:00,45.3,43.1,30.31,NNE,24,4.0,7.0,92,0.00,,,0.10,WeatherCatV1.15B25,2013-04-21 21:08:00,
2013-04-21 14:13:00,45.6,43.7,30.32,NNE,27,0.0,1.0,93,0.00,,,0.10,WeatherCatV1.15B25,2013-04-21 21:13:00,
2013-04-21 14:18:00,45.7,43.2,30.31,NW,326,3.0,6.0,91,0.00,,,0.11,WeatherCatV1.15B25,2013-04-21 21:18:00,
2013-04-21 14:23:00,45.5,43.0,30.31,NNE,22,2.0,4.0,91,0.00,,,0.11,WeatherCatV1.15B25,2013-04-21 21:23:00,
2013-04-21 14:28:00,45.5,43.0,30.32,NNW,345,4.0,6.0,91,0.00,,,0.11,WeatherCatV1.15B25,2013-04-21 21:28:00,
2013-04-21 14:33:00,45.6,43.1,30.32,NW,308,3.0,5.0,91,0.00,,,0.11,WeatherCatV1.15B25,2013-04-21 21:33:00,
2013-04-21 14:38:00,45.6,43.4,30.31,NW,318,3.0,4.0,92,0.00,,,0.11,WeatherCatV1.15B25,2013-04-21 21:38:00,
2013-04-21 14:43:00,45.9,44.0,30.32,North,5,3.0,4.0,93,0.00,,,0.12,WeatherCatV1.15B25,2013-04-21 21:43:00,
2013-04-21 14:48:00,46.0,43.8,30.32,NNW,338,3.0,4.0,92,0.00,,,0.12,WeatherCatV1.15B25,2013-04-21 21:48:00,
2013-04-21 14:53:00,46.1,43.9,30.32,NNW,343,1.0,7.0,92,0.00,,,0.12,WeatherCatV1.15B25,2013-04-21 21:53:00,
2013-04-21 14:58:00,46.5,44.0,30.32,NNW,327,4.0,7.0,91,0.00,,,0.12,WeatherCatV1.15B25,2013-04-21 21:58:00,
2013-04-21 15:03:00,46.7,44.5,30.32,WNW,288,3.0,3.0,92,0.00,,,0.12,WeatherCatV1.15B25,2013-04-21 22:03:00,
2013-04-21 15:08:00,47.0,44.2,30.32,NNW,342,3.0,4.0,90,0.00,,,0.12,WeatherCatV1.15B25,2013-04-21 22:08:00,
2013-04-21 15:13:00,47.4,44.9,30.32,NW,312,2.0,5.0,91,0.00,,,0.12,WeatherCatV1.15B25,2013-04-21 22:13:00,
2013-04-21 15:18:00,47.7,44.9,30.31,WNW,303,1.0,3.0,90,0.00,,,0.12,WeatherCatV1.15B25,2013-04-21 22:18:00,
2013-04-21 15:23:00,48.0,45.2,30.31,NW,318,3.0,4.0,90,0.00,,,0.12,WeatherCatV1.15B25,2013-04-21 22:23:00,
2013-04-21 15:28:00,48.2,44.8,30.31,NE,44,2.0,4.0,88,0.00,,,0.12,WeatherCatV1.15B25,2013-04-21 22:28:00,
2013-04-21 15:33:00,48.4,45.3,30.32,WNW,294,0.0,2.0,89,0.00,,,0.12,WeatherCatV1.15B25,2013-04-21 22:33:00,
2013-04-21 15:38:00,48.8,45.1,30.31,NNE,15,6.0,7.0,87,0.00,,,0.12,WeatherCatV1.15B25,2013-04-21 22:38:00,
2013-04-21 15:43:00,48.8,44.8,30.31,NNW,338,1.0,3.0,86,0.00,,,0.12,WeatherCatV1.15B25,2013-04-21 22:43:00,
2013-04-21 15:48:00,49.1,45.1,30.31,NNW,332,4.0,5.0,86,0.00,,,0.12,WeatherCatV1.15B25,2013-04-21 22:48:00,
2013-04-21 15:53:00,49.6,45.6,30.31,NNE,27,4.0,4.0,86,0.00,,,0.12,WeatherCatV1.15B25,2013-04-21 22:53:00,
2013-04-21 15:58:00,49.7,43.5,30.31,NW,322,2.0,5.0,79,0.00,,,0.12,WeatherCatV1.15B25,2013-04-21 22:58:00,
2013-04-21 16:03:00,50.0,44.4,30.31,NW,305,2.0,3.0,81,0.00,,,0.12,WeatherCatV1.15B25,2013-04-21 23:03:00,
2013-04-21 16:08:00,50.1,43.5,30.31,NE,44,1.0,3.0,78,0.00,,,0.12,WeatherCatV1.15B25,2013-04-21 23:08:00,
2013-04-21 16:13:00,50.2,43.9,30.30,West,278,3.0,6.0,79,0.00,,,0.12,WeatherCatV1.15B25,2013-04-21 23:13:00,
2013-04-21 16:18:00,50.1,43.2,30.30,WNW,293,0.0,4.0,77,0.00,,,0.12,WeatherCatV1.15B25,2013-04-21 23:18:00,
2013-04-21 16:23:00,50.6,43.0,30.31,NW,312,5.0,8.0,75,0.00,,,0.12,WeatherCatV1.15B25,2013-04-21 23:23:00,
2013-04-21 16:28:00,50.5,43.9,30.30,NNE,32,3.0,9.0,78,0.00,,,0.12,WeatherCatV1.15B25,2013-04-21 23:28:00,
2013-04-21 16:33:00,50.0,44.4,30.31,NE,43,8.0,9.0,81,0.00,,,0.12,WeatherCatV1.15B25,2013-04-21 23:33:00,
2013-04-21 16:38:00,49.7,44.7,30.31,ENE,59,3.0,3.0,83,0.00,,,0.12,WeatherCatV1.15B25,2013-04-21 23:38:00,
2013-04-21 16:43:00,49.5,44.2,30.31,NE,34,4.0,8.0,82,0.00,,,0.12,WeatherCatV1.15B25,2013-04-21 23:43:00,
2013-04-21 16:48:00,49.0,44.1,30.31,NE,47,5.0,7.0,83,0.00,,,0.12,WeatherCatV1.15B25,2013-04-21 23:48:00,
2013-04-21 16:53:00,48.6,44.3,30.31,NE,48,2.0,2.0,85,0.00,,,0.12,WeatherCatV1.15B25,2013-04-21 23:53:00,
2013-04-21 16:58:00,48.6,44.0,30.31,NE,43,1.0,3.0,84,0.00,,,0.12,WeatherCatV1.15B25,2013-04-21 23:58:00,
2013-04-21 17:03:00,48.7,44.1,30.31,North,349,0.0,4.0,84,0.00,,,0.12,WeatherCatV1.15B25,2013-04-22 00:03:00,
2013-04-21 17:08:00,48.8,44.5,30.31,ENE,62,3.0,3.0,85,0.00,,,0.12,WeatherCatV1.15B25,2013-04-22 00:08:00,
2013-04-21 17:13:00,48.8,44.2,30.31,NE,56,1.0,3.0,84,0.00,,,0.12,WeatherCatV1.15B25,2013-04-22 00:13:00,
2013-04-21 17:18:00,49.2,44.9,30.32,ENE,57,0.0,0.0,85,0.00,,,0.12,WeatherCatV1.15B25,2013-04-22 00:18:00,
2013-04-21 17:23:00,49.3,44.7,30.32,WNW,302,1.0,2.0,84,0.00,,,0.12,WeatherCatV1.15B25,2013-04-22 00:23:00,
2013-04-21 17:28:00,49.6,45.0,30.32,SW,229,1.0,1.0,84,0.00,,,0.12,WeatherCatV1.15B25,2013-04-22 00:28:00,
2013-04-21 17:33:00,50.7,44.8,30.32,SW,224,3.0,3.0,80,0.00,,,0.12,WeatherCatV1.15B25,2013-04-22 00:33:00,
2013-04-21 17:38:00,50.0,44.1,30.32,SW,221,0.0,1.0,80,0.00,,,0.12,WeatherCatV1.15B25,2013-04-22 00:38:00,
2013-04-21 17:43:00,50.5,44.6,30.32,NNW,330,0.0,1.0,80,0.00,,,0.12,WeatherCatV1.15B25,2013-04-22 00:43:00,
2013-04-21 17:48:00,50.5,43.9,30.32,WNW,293,1.0,4.0,78,0.00,,,0.12,WeatherCatV1.15B25,2013-04-22 00:48:00,
2013-04-21 17:53:00,50.3,44.0,30.32,North,354,3.0,5.0,79,0.00,,,0.12,WeatherCatV1.15B25,2013-04-22 00:53:00,
2013-04-21 17:58:00,50.0,43.7,30.32,North,11,1.0,3.0,79,0.00,,,0.12,WeatherCatV1.15B25,2013-04-22 00:58:00,
2013-04-21 18:03:00,50.0,43.7,30.32,NW,318,0.0,1.0,79,0.00,,,0.12,WeatherCatV1.15B25,2013-04-22 01:03:00,
2013-04-21 18:08:00,50.0,43.7,30.32,North,6,0.0,2.0,79,0.00,,,0.12,WeatherCatV1.15B25,2013-04-22 01:08:00,
2013-04-21 18:13:00,50.1,44.5,30.32,NW,314,1.0,2.0,81,0.00,,,0.12,WeatherCatV1.15B25,2013-04-22 01:13:00,
2013-04-21 18:18:00,50.4,43.8,30.32,NE,38,2.0,3.0,78,0.00,,,0.12,WeatherCatV1.15B25,2013-04-22 01:18:00,
2013-04-21 18:23:00,50.1,43.8,30.32,North,7,2.0,4.0,79,0.00,,,0.12,WeatherCatV1.15B25,2013-04-22 01:23:00,
2013-04-21 18:28:00,50.0,43.7,30.32,ENE,60,0.0,1.0,79,0.00,,,0.12,WeatherCatV1.15B25,2013-04-22 01:28:00,
2013-04-21 18:33:00,50.3,44.4,30.32,ENE,60,0.0,0.0,80,0.00,,,0.12,WeatherCatV1.15B25,2013-04-22 01:33:00,
2013-04-21 18:38:00,50.9,44.6,30.32,ENE,60,0.0,1.0,79,0.00,,,0.12,WeatherCatV1.15B25,2013-04-22 01:38:00,
2013-04-21 18:43:00,51.1,44.5,30.32,ENE,61,0.0,1.0,78,0.00,,,0.12,WeatherCatV1.15B25,2013-04-22 01:43:00,
2013-04-21 18:48:00,51.1,43.8,30.32,WNW,283,2.0,2.0,76,0.00,,,0.12,WeatherCatV1.15B25,2013-04-22 01:48:00,
2013-04-21 18:53:00,51.3,45.3,30.32,SW,225,1.0,1.0,80,0.00,,,0.12,WeatherCatV1.15B25,2013-04-22 01:53:00,
2013-04-21 18:58:00,51.6,43.6,30.32,NW,308,1.0,3.0,74,0.00,,,0.12,WeatherCatV1.15B25,2013-04-22 01:58:00,
2013-04-21 19:03:00,51.3,42.9,30.32,WNW,301,1.0,3.0,73,0.00,,,0.12,WeatherCatV1.15B25,2013-04-22 02:03:00,
2013-04-21 19:08:00,51.2,43.6,30.32,WSW,255,0.0,6.0,75,0.00,,,0.12,WeatherCatV1.15B25,2013-04-22 02:08:00,
2013-04-21 19:13:00,50.7,42.7,30.32,West,262,3.0,6.0,74,0.00,,,0.12,WeatherCatV1.15B25,2013-04-22 02:13:00,
2013-04-21 19:18:00,50.1,42.8,30.33,NNW,329,2.0,4.0,76,0.00,,,0.12,WeatherCatV1.15B25,2013-04-22 02:18:00,
2013-04-21 19:23:00,49.5,42.6,30.33,WNW,295,6.0,6.0,77,0.00,,,0.12,WeatherCatV1.15B25,2013-04-22 02:23:00,
2013-04-21 19:28:00,49.1,42.2,30.33,North,356,3.0,5.0,77,0.00,,,0.12,WeatherCatV1.15B25,2013-04-22 02:28:00,
2013-04-21 19:33:00,48.7,42.2,30.33,West,281,3.0,8.0,78,0.00,,,0.12,WeatherCatV1.15B25,2013-04-22 02:33:00,
2013-04-21 19:38:00,48.4,42.2,30.33,North,352,3.0,10.0,79,0.00,,,0.12,WeatherCatV1.15B25,2013-04-22 02:38:00,
2013-04-21 19:43:00,48.4,42.5,30.33,NW,308,1.0,2.0,80,0.00,,,0.12,WeatherCatV1.15B25,2013-04-22 02:43:00,
2013-04-21 19:48:00,48.3,42.4,30.34,NW,318,6.0,7.0,80,0.00,,,0.12,WeatherCatV1.15B25,2013-04-22 02:48:00,
2013-04-21 19:53:00,48.0,41.8,30.34,NW,312,2.0,6.0,79,0.00,,,0.12,WeatherCatV1.15B25,2013-04-22 02:53:00,
2013-04-21 19:58:00,47.7,41.2,30.34,WNW,301,5.0,10.0,78,0.00,,,0.12,WeatherCatV1.15B25,2013-04-22 02:58:00,
2013-04-21 20:03:00,47.4,40.9,30.34,NW,309,5.0,12.0,78,0.00,,,0.12,WeatherCatV1.15B25,2013-04-22 03:03:00,
2013-04-21 20:08:00,47.1,40.9,30.35,WNW,287,5.0,11.0,79,0.00,,,0.12,WeatherCatV1.15B25,2013-04-22 03:08:00,
2013-04-21 20:13:00,46.9,40.7,30.34,WNW,299,4.0,4.0,79,0.00,,,0.12,WeatherCatV1.15B25,2013-04-22 03:13:00,
2013-04-21 20:18:00,46.6,40.8,30.35,NW,308,8.0,9.0,80,0.00,,,0.12,WeatherCatV1.15B25,2013-04-22 03:18:00,
2013-04-21 20:23:00,46.4,40.6,30.35,WNW,303,5.0,5.0,80,0.00,,,0.12,WeatherCatV1.15B25,2013-04-22 03:23:00,
2013-04-21 20:28:00,46.2,40.7,30.35,WNW,301,1.0,4.0,81,0.00,,,0.12,WeatherCatV1.15B25,2013-04-22 03:28:00,
2013-04-21 20:33:00,46.0,40.5,30.35,WNW,297,3.0,10.0,81,0.00,,,0.12,WeatherCatV1.15B25,2013-04-22 03:33:00,
2013-04-21 20:38:00,45.9,40.1,30.36,WSW,250,2.0,10.0,80,0.00,,,0.12,WeatherCatV1.15B25,2013-04-22 03:38:00,
2013-04-21 20:43:00,45.8,40.0,30.36,NNW,340,3.0,5.0,80,0.00,,,0.12,WeatherCatV1.15B25,2013-04-22 03:43:00,
2013-04-21 20:48:00,45.6,40.1,30.36,NNW,328,5.0,5.0,81,0.00,,,0.12,WeatherCatV1.15B25,2013-04-22 03:48:00,
2013-04-21 20:53:00,45.5,39.7,30.36,NW,322,3.0,7.0,80,0.00,,,0.12,WeatherCatV1.15B25,2013-04-22 03:53:00,
2013-04-21 20:58:00,45.3,39.8,30.37,NNE,27,3.0,5.0,81,0.00,,,0.12,WeatherCatV1.15B25,2013-04-22 03:58:00,
2013-04-21 21:01:00,45.2,39.7,30.37,West,276,3.0,4.0,81,0.00,,,0.12,WeatherCatV1.15B25,2013-04-22 04:01:00,
2013-04-21 21:06:00,45.0,39.8,30.37,NW,316,1.0,3.0,82,0.00,,,0.12,WeatherCatV1.15B25,2013-04-22 04:06:00,
2013-04-21 21:11:00,44.8,40.0,30.37,NNE,27,3.0,3.0,83,0.00,,,0.12,WeatherCatV1.15B25,2013-04-22 04:11:00,
2013-04-21 21:16:00,44.6,39.8,30.38,NNE,22,1.0,2.0,83,0.00,,,0.12,WeatherCatV1.15B25,2013-04-22 04:16:00,
2013-04-21 21:21:00,44.5,40.0,30.38,NE,39,1.0,2.0,84,0.00,,,0.12,WeatherCatV1.15B25,2013-04-22 04:21:00,
2013-04-21 21:26:00,44.3,39.8,30.38,NE,39,2.0,2.0,84,0.00,,,0.12,WeatherCatV1.15B25,2013-04-22 04:26:00,
2013-04-21 21:31:00,44.1,39.9,30.38,NW,326,1.0,1.0,85,0.00,,,0.12,WeatherCatV1.15B25,2013-04-22 04:31:00,
2013-04-21 21:36:00,43.9,39.7,30.38,North,359,0.0,0.0,85,0.00,,,0.12,WeatherCatV1.15B25,2013-04-22 04:36:00,
2013-04-21 21:41:00,43.7,39.8,30.39,NNE,33,1.0,1.0,86,0.00,,,0.12,WeatherCatV1.15B25,2013-04-22 04:41:00,
2013-04-21 21:46:00,43.6,40.0,30.39,NW,310,1.0,5.0,87,0.00,,,0.12,WeatherCatV1.15B25,2013-04-22 04:46:00,
2013-04-21 21:51:00,43.5,39.9,30.39,WNW,297,2.0,2.0,87,0.00,,,0.12,WeatherCatV1.15B25,2013-04-22 04:51:00,
2013-04-21 21:56:00,43.5,39.9,30.39,North,356,2.0,4.0,87,0.00,,,0.12,WeatherCatV1.15B25,2013-04-22 04:56:00,
2013-04-21 22:01:00,43.4,39.8,30.39,WNW,297,0.0,1.0,87,0.00,,,0.12,WeatherCatV1.15B25,2013-04-22 05:01:00,
2013-04-21 22:06:00,43.3,40.0,30.39,NNW,333,0.0,2.0,88,0.00,,,0.12,WeatherCatV1.15B25,2013-04-22 05:06:00,
2013-04-21 22:11:00,43.1,39.8,30.40,WSW,258,0.0,1.0,88,0.00,,,0.12,WeatherCatV1.15B25,2013-04-22 05:11:00,
2013-04-21 22:16:00,42.9,39.6,30.40,NW,314,1.0,1.0,88,0.00,,,0.12,WeatherCatV1.15B25,2013-04-22 05:16:00,
2013-04-21 22:21:00,42.7,39.4,30.40,NW,312,0.0,1.0,88,0.00,,,0.12,WeatherCatV1.15B25,2013-04-22 05:21:00,
2013-04-21 22:26:00,42.5,39.5,30.40,NNE,24,0.0,2.0,89,0.00,,,0.12,WeatherCatV1.15B25,2013-04-22 05:26:00,
2013-04-21 22:31:00,42.4,39.4,30.40,NNE,25,0.0,1.0,89,0.00,,,0.12,WeatherCatV1.15B25,2013-04-22 05:31:00,
2013-04-21 22:36:00,42.2,39.5,30.40,NE,46,1.0,2.0,90,0.00,,,0.12,WeatherCatV1.15B25,2013-04-22 05:36:00,
2013-04-21 22:41:00,42.2,39.5,30.41,NE,43,0.0,0.0,90,0.00,,,0.12,WeatherCatV1.15B25,2013-04-22 05:41:00,
2013-04-21 22:46:00,42.0,39.3,30.41,NE,43,0.0,0.0,90,0.00,,,0.12,WeatherCatV1.15B25,2013-04-22 05:46:00,
2013-04-21 22:51:00,41.8,39.1,30.41,NNE,31,1.0,1.0,90,0.00,,,0.12,WeatherCatV1.15B25,2013-04-22 05:51:00,
2013-04-21 22:56:00,41.7,39.0,30.41,ENE,64,1.0,2.0,90,0.00,,,0.12,WeatherCatV1.15B25,2013-04-22 05:56:00,
2013-04-21 23:01:00,41.5,39.1,30.41,ENE,64,0.0,1.0,91,0.00,,,0.12,WeatherCatV1.15B25,2013-04-22 06:01:00,
2013-04-21 23:06:00,41.3,38.9,30.41,NE,56,1.0,1.0,91,0.00,,,0.12,WeatherCatV1.15B25,2013-04-22 06:06:00,
2013-04-21 23:11:00,41.3,38.9,30.41,ENE,57,1.0,1.0,91,0.00,,,0.12,WeatherCatV1.15B25,2013-04-22 06:11:00,
2013-04-21 23:16:00,41.1,38.7,30.41,NE,47,1.0,1.0,91,0.00,,,0.12,WeatherCatV1.15B25,2013-04-22 06:16:00,
2013-04-21 23:21:00,41.2,38.8,30.41,NE,34,1.0,1.0,91,0.00,,,0.12,WeatherCatV1.15B25,2013-04-22 06:21:00,
2013-04-21 23:26:00,41.2,38.8,30.41,NE,34,2.0,2.0,91,0.00,,,0.12,WeatherCatV1.15B25,2013-04-22 06:26:00,
2013-04-21 23:31:00,41.2,38.8,30.41,NE,34,0.0,2.0,91,0.00,,,0.12,WeatherCatV1.15B25,2013-04-22 06:31:00,
2013-04-21 23:36:00,41.0,38.6,30.41,NE,34,0.0,0.0,91,0.00,,,0.12,WeatherCatV1.15B25,2013-04-22 06:36:00,
2013-04-21 23:41:00,40.7,38.3,30.42,NE,34,0.0,1.0,91,0.00,,,0.12,WeatherCatV1.15B25,2013-04-22 06:41:00,
2013-04-21 23:46:00,40.5,38.4,30.42,NE,34,1.0,2.0,92,0.00,,,0.12,WeatherCatV1.15B25,2013-04-22 06:46:00,
2013-04-21 23:51:00,40.4,38.3,30.42,NE,34,2.0,2.0,92,0.00,,,0.12,WeatherCatV1.15B25,2013-04-22 06:51:00,
2013-04-21 23:56:00,40.4,38.3,30.42,NNE,12,2.0,3.0,92,0.00,,,0.12,WeatherCatV1.15B25,2013-04-22 06:56:00,